createdAt,value
2018-07-14T00:02:21.803Z,14.60
2018-07-14T00:04:48.675Z,14.60
2018-07-14T00:07:15.616Z,14.60
2018-07-14T00:09:42.487Z,14.60
2018-07-14T00:12:09.624Z,14.60
2018-07-14T00:14:36.503Z,14.60
2018-07-14T00:17:03.407Z,14.60
2018-07-14T00:19:32.330Z,14.60
2018-07-14T00:21:59.776Z,14.60
2018-07-14T00:24:26.827Z,14.60
2018-07-14T00:26:53.627Z,14.70
2018-07-14T00:29:20.535Z,14.70
2018-07-14T00:31:47.408Z,14.60
2018-07-14T00:34:14.305Z,14.60
2018-07-14T00:36:41.192Z,14.60
2018-07-14T00:39:09.038Z,14.50
2018-07-14T00:41:36.179Z,14.50
2018-07-14T00:44:03.098Z,14.40
2018-07-14T00:46:29.975Z,14.40
2018-07-14T00:48:57.098Z,14.30
2018-07-14T00:51:24.012Z,14.30
2018-07-14T00:53:50.904Z,14.20
2018-07-14T00:56:17.775Z,14.20
2018-07-14T00:58:44.699Z,14.30
2018-07-14T01:01:11.711Z,14.30
2018-07-14T01:03:39.356Z,14.30
2018-07-14T01:06:07.138Z,14.30
2018-07-14T01:08:34.227Z,14.30
2018-07-14T01:11:01.134Z,14.20
2018-07-14T01:13:28.024Z,14.20
2018-07-14T01:15:54.919Z,14.20
2018-07-14T01:18:22.056Z,14.20
2018-07-14T01:20:48.959Z,14.10
2018-07-14T01:23:15.840Z,14.10
2018-07-14T01:25:43.433Z,14.00
2018-07-14T01:28:10.411Z,13.90
2018-07-14T01:30:37.292Z,13.90
2018-07-14T01:33:04.329Z,13.90
2018-07-14T01:35:31.479Z,13.90
2018-07-14T01:37:58.543Z,13.90
2018-07-14T01:40:25.415Z,13.90
2018-07-14T01:42:52.308Z,13.90
2018-07-14T01:45:19.179Z,13.90
2018-07-14T01:47:46.067Z,13.90
2018-07-14T01:50:12.980Z,13.90
2018-07-14T01:52:39.851Z,13.90
2018-07-14T01:55:06.719Z,13.80
2018-07-14T01:57:33.612Z,13.80
2018-07-14T02:00:00.488Z,13.70
2018-07-14T02:02:27.387Z,13.60
2018-07-14T02:04:54.255Z,13.60
2018-07-14T02:07:21.152Z,13.50
2018-07-14T02:09:48.016Z,13.50
2018-07-14T02:12:14.915Z,13.50
2018-07-14T02:14:41.789Z,13.50
2018-07-14T02:17:08.688Z,13.60
2018-07-14T02:19:35.556Z,13.50
2018-07-14T02:22:02.456Z,13.50
2018-07-14T02:24:29.492Z,13.50
2018-07-14T02:26:56.412Z,13.50
2018-07-14T02:29:23.295Z,13.40
2018-07-14T02:31:50.243Z,13.30
2018-07-14T02:34:17.119Z,13.40
2018-07-14T02:36:43.990Z,13.40
2018-07-14T02:39:11.136Z,13.40
2018-07-14T02:41:38.050Z,13.30
2018-07-14T02:44:05.312Z,13.30
2018-07-14T02:46:32.288Z,13.30
2018-07-14T02:48:59.360Z,13.20
2018-07-14T02:51:26.227Z,13.20
2018-07-14T02:53:53.144Z,13.20
2018-07-14T02:56:20.016Z,13.20
2018-07-14T02:58:46.907Z,13.20
2018-07-14T03:01:13.791Z,13.20
2018-07-14T03:03:40.682Z,13.30
2018-07-14T03:06:07.552Z,13.30
2018-07-14T03:08:34.712Z,13.30
2018-07-14T03:11:01.640Z,13.30
2018-07-14T03:13:28.533Z,13.30
2018-07-14T03:15:55.436Z,13.30
2018-07-14T03:18:22.312Z,13.30
2018-07-14T03:20:49.212Z,13.30
2018-07-14T03:23:16.092Z,13.30
2018-07-14T03:25:43.027Z,13.30
2018-07-14T03:28:10.183Z,13.20
2018-07-14T03:30:37.088Z,13.20
2018-07-14T03:33:03.997Z,13.20
2018-07-14T03:35:30.890Z,13.10
2018-07-14T03:37:57.866Z,13.10
2018-07-14T03:40:24.778Z,13.10
2018-07-14T03:42:51.653Z,13.10
2018-07-14T03:45:18.879Z,13.10
2018-07-14T03:47:45.757Z,13.10
2018-07-14T03:50:12.652Z,13.00
2018-07-14T03:52:39.528Z,13.10
2018-07-14T03:55:07.367Z,13.10
2018-07-14T03:57:34.433Z,13.10
2018-07-14T04:00:01.324Z,13.10
2018-07-14T04:02:28.267Z,13.10
2018-07-14T04:04:55.172Z,13.10
2018-07-14T04:07:22.052Z,13.10
2018-07-14T04:09:48.954Z,13.20
2018-07-14T04:12:15.831Z,13.20
2018-07-14T04:14:42.829Z,13.20
2018-07-14T04:17:09.633Z,13.30
2018-07-14T04:19:36.567Z,13.40
2018-07-14T04:22:03.448Z,13.40
2018-07-14T04:24:30.376Z,13.50
2018-07-14T04:26:57.243Z,13.50
2018-07-14T04:31:51.030Z,13.70
2018-07-14T04:34:17.920Z,13.80
2018-07-14T04:36:44.797Z,13.80
2018-07-14T04:39:11.687Z,13.90
2018-07-14T04:41:38.596Z,14.00
2018-07-14T04:44:05.500Z,14.20
2018-07-14T04:46:32.384Z,14.20
2018-07-14T04:48:59.283Z,14.30
2018-07-14T04:51:26.160Z,14.30
2018-07-14T04:53:53.055Z,14.40
2018-07-14T04:56:19.928Z,14.50
2018-07-14T04:58:46.815Z,14.50
2018-07-14T05:01:13.684Z,14.60
2018-07-14T05:03:40.580Z,14.60
2018-07-14T05:06:07.486Z,14.60
2018-07-14T05:08:34.375Z,14.70
2018-07-14T05:13:28.159Z,14.70
2018-07-14T05:15:55.027Z,14.80
2018-07-14T05:18:21.947Z,14.80
2018-07-14T05:20:48.825Z,14.90
2018-07-14T05:23:15.723Z,15.00
2018-07-14T05:25:42.614Z,15.20
2018-07-14T05:30:36.479Z,15.50
2018-07-14T05:33:03.356Z,15.70
2018-07-14T05:35:30.251Z,15.80
2018-07-14T05:37:57.127Z,15.90
2018-07-14T05:40:24.027Z,16.00
2018-07-14T05:42:50.895Z,16.10
2018-07-14T05:45:17.792Z,16.10
2018-07-14T05:47:44.668Z,16.10
2018-07-14T05:50:11.563Z,16.20
2018-07-14T05:52:38.439Z,16.30
2018-07-14T05:55:05.338Z,16.40
2018-07-14T05:57:32.211Z,16.50
2018-07-14T05:59:59.115Z,16.70
2018-07-14T06:02:26.021Z,16.90
2018-07-14T06:04:52.911Z,17.10
2018-07-14T06:09:46.716Z,17.40
2018-07-14T06:12:13.655Z,17.50
2018-07-14T06:14:40.528Z,17.50
2018-07-14T06:17:07.428Z,17.60
2018-07-14T06:19:34.376Z,17.60
2018-07-14T06:22:01.259Z,17.70
2018-07-14T06:24:28.163Z,17.90
2018-07-14T06:26:55.063Z,18.10
2018-07-14T06:29:21.943Z,18.30
2018-07-14T06:31:48.848Z,18.50
2018-07-14T06:34:15.731Z,18.90
2018-07-14T06:36:42.628Z,19.30
2018-07-14T06:39:09.684Z,19.70
2018-07-14T06:41:36.596Z,20.20
2018-07-14T06:44:03.480Z,20.60
2018-07-14T06:46:30.385Z,21.20
2018-07-14T06:48:57.359Z,21.90
2018-07-14T06:51:24.256Z,22.30
2018-07-14T06:53:51.131Z,22.80
2018-07-14T06:56:18.027Z,23.10
2018-07-14T06:58:44.896Z,23.10
2018-07-14T07:01:11.800Z,23.50
2018-07-14T07:03:38.680Z,23.80
2018-07-14T07:06:05.612Z,24.40
2018-07-14T07:08:32.516Z,25.20
2018-07-14T07:10:59.400Z,25.90
2018-07-14T07:13:26.307Z,26.70
2018-07-14T07:15:53.187Z,27.10
2018-07-14T07:18:20.089Z,27.20
2018-07-14T07:20:47.311Z,27.70
2018-07-14T07:25:41.075Z,28.50
2018-07-14T07:28:08.684Z,28.60
2018-07-14T07:30:35.555Z,28.40
2018-07-14T07:33:02.495Z,28.10
2018-07-14T07:35:29.661Z,28.00
2018-07-14T07:37:57.022Z,27.80
2018-07-14T07:40:23.939Z,27.20
2018-07-14T07:42:50.830Z,26.80
2018-07-14T07:45:18.045Z,26.50
2018-07-14T07:47:45.025Z,26.80
2018-07-14T07:50:11.935Z,27.10
2018-07-14T07:52:38.833Z,27.90
2018-07-14T07:55:05.708Z,28.90
2018-07-14T07:57:34.598Z,29.60
2018-07-14T08:00:03.588Z,30.00
2018-07-14T08:02:30.495Z,29.80
2018-07-14T08:05:02.036Z,30.30
2018-07-14T08:07:29.675Z,31.00
2018-07-14T08:09:56.559Z,31.70
2018-07-14T08:12:23.473Z,31.80
2018-07-14T08:14:50.352Z,33.00
2018-07-14T08:17:17.256Z,32.80
2018-07-14T08:19:44.131Z,31.90
2018-07-14T08:22:11.111Z,31.60
2018-07-14T08:24:37.988Z,31.70
2018-07-14T08:27:05.431Z,32.40
2018-07-14T08:29:32.483Z,32.50
2018-07-14T08:31:59.355Z,32.60
2018-07-14T08:34:26.247Z,32.50
2018-07-14T08:36:53.318Z,32.90
2018-07-14T08:39:20.210Z,33.00
2018-07-14T08:41:47.105Z,33.80
2018-07-14T08:44:14.003Z,34.80
2018-07-14T08:46:40.875Z,34.40
2018-07-14T08:49:07.824Z,34.80
2018-07-14T08:51:34.839Z,34.70
2018-07-14T08:54:01.644Z,35.00
2018-07-14T08:56:28.516Z,35.80
2018-07-14T08:58:55.424Z,35.70
2018-07-14T09:01:22.304Z,35.90
2018-07-14T09:03:49.203Z,36.20
2018-07-14T09:06:17.723Z,36.90
2018-07-14T09:08:44.944Z,37.30
2018-07-14T09:11:12.093Z,37.60
2018-07-14T09:13:40.296Z,37.70
2018-07-14T09:16:07.196Z,38.10
2018-07-14T09:18:34.808Z,38.30
2018-07-14T09:21:01.995Z,38.50
2018-07-14T09:23:29.225Z,38.40
2018-07-14T09:25:56.099Z,38.50
2018-07-14T09:28:23.003Z,38.00
2018-07-14T09:30:49.875Z,36.40
2018-07-14T09:33:16.859Z,36.10
2018-07-14T09:35:43.735Z,36.10
2018-07-14T09:38:10.604Z,35.60
2018-07-14T09:40:37.504Z,35.90
2018-07-14T09:43:04.379Z,36.70
2018-07-14T09:45:31.293Z,36.70
2018-07-14T09:47:58.169Z,37.70
2018-07-14T09:50:25.319Z,37.80
2018-07-14T09:52:52.523Z,38.90
2018-07-14T09:55:19.432Z,38.70
2018-07-14T09:57:46.318Z,38.60
2018-07-14T10:00:18.819Z,38.60
2018-07-14T10:02:45.695Z,39.30
2018-07-14T10:05:12.591Z,40.00
2018-07-14T10:07:39.463Z,40.80
2018-07-14T10:10:06.703Z,40.60
2018-07-14T10:12:33.499Z,40.70
2018-07-14T10:15:00.404Z,41.10
2018-07-14T10:17:27.632Z,40.80
2018-07-14T10:19:54.534Z,41.20
2018-07-14T10:22:21.536Z,42.10
2018-07-14T10:24:48.351Z,42.40
2018-07-14T10:27:15.233Z,42.40
2018-07-14T10:29:42.365Z,42.00
2018-07-14T10:32:09.269Z,41.00
2018-07-14T10:34:36.163Z,41.10
2018-07-14T10:37:03.036Z,40.50
2018-07-14T10:39:29.938Z,41.20
2018-07-14T10:41:56.870Z,42.30
2018-07-14T10:44:23.740Z,42.50
2018-07-14T10:46:50.701Z,42.10
2018-07-14T10:49:17.544Z,42.30
2018-07-14T10:51:44.419Z,42.30
2018-07-14T10:54:11.572Z,41.60
2018-07-14T10:59:05.315Z,41.00
2018-07-14T11:01:32.227Z,40.20
2018-07-14T11:03:59.099Z,38.50
2018-07-14T11:06:26.248Z,37.50
2018-07-14T11:08:53.110Z,38.20
2018-07-14T11:11:20.012Z,39.60
2018-07-14T11:13:46.879Z,41.00
2018-07-14T11:16:13.780Z,41.30
2018-07-14T11:18:40.659Z,41.60
2018-07-14T11:21:07.582Z,41.80
2018-07-14T11:23:34.488Z,42.70
2018-07-14T11:26:01.391Z,41.50
2018-07-14T11:28:28.264Z,40.40
2018-07-14T11:30:55.420Z,40.60
2018-07-14T11:33:22.292Z,40.40
2018-07-14T11:38:16.121Z,38.80
2018-07-14T11:40:43.135Z,38.80
2018-07-14T11:43:10.076Z,38.10
2018-07-14T11:45:36.972Z,37.60
2018-07-14T11:48:04.008Z,36.80
2018-07-14T11:50:30.930Z,35.30
2018-07-14T11:52:57.831Z,34.30
2018-07-14T11:55:24.727Z,33.60
2018-07-14T11:57:51.600Z,34.10
2018-07-14T12:00:18.551Z,36.30
2018-07-14T12:02:45.419Z,38.30
2018-07-14T12:05:12.320Z,39.60
2018-07-14T12:07:39.192Z,40.30
2018-07-14T12:10:07.032Z,40.60
2018-07-14T12:12:33.939Z,40.70
2018-07-14T12:15:00.826Z,41.40
2018-07-14T12:17:27.702Z,41.90
2018-07-14T12:19:54.599Z,42.40
2018-07-14T12:22:21.713Z,43.20
2018-07-14T12:24:48.575Z,44.10
2018-07-14T12:27:15.448Z,43.20
2018-07-14T12:29:42.340Z,43.10
2018-07-14T12:32:09.207Z,42.90
2018-07-14T12:34:36.112Z,42.80
2018-07-14T12:37:03.156Z,41.80
2018-07-14T12:39:30.060Z,41.10
2018-07-14T12:41:57.551Z,40.60
2018-07-14T12:44:24.448Z,40.50
2018-07-14T12:46:51.319Z,39.90
2018-07-14T12:49:18.196Z,39.10
2018-07-14T12:51:45.096Z,37.80
2018-07-14T12:54:12.035Z,36.50
2018-07-14T12:56:38.930Z,35.60
2018-07-14T12:59:05.797Z,35.00
2018-07-14T13:01:34.045Z,34.70
2018-07-14T13:04:00.923Z,34.30
2018-07-14T13:06:27.847Z,34.70
2018-07-14T13:08:54.723Z,35.10
2018-07-14T13:11:21.647Z,34.10
2018-07-14T13:13:48.608Z,32.90
2018-07-14T13:16:15.500Z,32.00
2018-07-14T13:18:42.362Z,31.80
2018-07-14T13:21:09.271Z,31.70
2018-07-14T13:26:03.028Z,34.60
2018-07-14T13:28:29.984Z,36.50
2018-07-14T13:30:57.116Z,38.30
2018-07-14T13:33:24.051Z,39.10
2018-07-14T13:35:50.919Z,40.10
2018-07-14T13:38:17.782Z,40.70
2018-07-14T13:40:45.128Z,41.10
2018-07-14T13:43:12.015Z,41.00
2018-07-14T13:45:38.936Z,40.20
2018-07-14T13:48:05.811Z,38.90
2018-07-14T13:50:32.704Z,37.40
2018-07-14T13:52:59.572Z,35.90
2018-07-14T13:55:26.484Z,35.30
2018-07-14T13:57:53.359Z,35.70
2018-07-14T14:00:20.275Z,35.00
2018-07-14T14:02:47.135Z,35.00
2018-07-14T14:05:14.023Z,35.60
2018-07-14T14:07:40.891Z,36.00
2018-07-14T14:10:07.807Z,36.10
2018-07-14T14:12:34.690Z,36.40
2018-07-14T14:15:01.831Z,37.20
2018-07-14T14:17:28.716Z,37.90
2018-07-14T14:19:55.742Z,38.00
2018-07-14T14:22:22.624Z,38.00
2018-07-14T14:24:49.779Z,38.10
2018-07-14T14:27:16.977Z,37.50
2018-07-14T14:29:43.843Z,36.70
2018-07-14T14:32:10.779Z,36.50
2018-07-14T14:34:37.767Z,36.10
2018-07-14T14:37:04.644Z,35.40
2018-07-14T14:39:31.518Z,34.70
2018-07-14T14:41:58.863Z,34.20
2018-07-14T14:44:25.789Z,34.00
2018-07-14T14:46:52.752Z,33.40
2018-07-14T14:49:19.676Z,33.70
2018-07-14T14:51:47.238Z,34.30
2018-07-14T14:54:14.170Z,35.00
2018-07-14T14:56:41.039Z,35.70
2018-07-14T14:59:08.392Z,34.80
2018-07-14T15:01:35.306Z,33.70
2018-07-14T15:04:02.243Z,32.40
2018-07-14T15:06:29.120Z,31.40
2018-07-14T15:08:57.035Z,31.30
2018-07-14T15:11:24.234Z,31.20
2018-07-14T15:13:51.127Z,30.30
2018-07-14T15:16:18.066Z,29.90
2018-07-14T15:18:44.944Z,29.50
2018-07-14T15:21:11.815Z,29.20
2018-07-14T15:23:38.735Z,28.70
2018-07-14T15:26:06.581Z,29.20
2018-07-14T15:28:33.495Z,30.40
2018-07-14T15:31:00.467Z,31.00
2018-07-14T15:33:27.443Z,31.30
2018-07-14T15:35:54.287Z,31.70
2018-07-14T15:38:21.456Z,32.20
2018-07-14T15:40:48.523Z,32.70
2018-07-14T15:43:16.731Z,33.20
2018-07-14T15:45:43.652Z,32.80
2018-07-14T15:48:12.594Z,33.00
2018-07-14T15:50:39.525Z,33.20
2018-07-14T15:53:06.707Z,33.20
2018-07-14T15:55:33.803Z,32.70
2018-07-14T15:58:00.702Z,32.60
2018-07-14T16:00:27.623Z,32.70
2018-07-14T16:02:54.503Z,32.80
2018-07-14T16:05:21.463Z,33.00
2018-07-14T16:07:48.814Z,32.70
2018-07-14T16:10:15.731Z,32.50
2018-07-14T16:12:42.678Z,32.40
2018-07-14T16:15:09.617Z,32.00
2018-07-14T16:17:36.501Z,31.90
2018-07-14T16:20:03.415Z,31.90
2018-07-14T16:22:30.283Z,31.60
2018-07-14T16:24:57.195Z,31.20
2018-07-14T16:27:24.119Z,30.70
2018-07-14T16:29:51.287Z,30.10
2018-07-14T16:32:18.200Z,29.30
2018-07-14T16:34:45.080Z,28.50
2018-07-14T16:37:11.987Z,28.10
2018-07-14T16:39:38.901Z,27.90
2018-07-14T16:42:05.811Z,27.60
2018-07-14T16:44:32.679Z,27.50
2018-07-14T16:46:59.614Z,27.40
2018-07-14T16:49:26.485Z,27.10
2018-07-14T16:51:53.399Z,26.70
2018-07-14T16:54:20.267Z,26.40
2018-07-14T16:56:47.232Z,26.20
2018-07-14T16:59:14.144Z,26.10
2018-07-14T17:01:41.011Z,25.90
2018-07-14T17:04:07.918Z,25.80
2018-07-14T17:06:34.788Z,25.80
2018-07-14T17:09:01.715Z,25.70
2018-07-14T17:11:28.683Z,25.70
2018-07-14T17:13:55.615Z,25.70
2018-07-14T17:16:22.532Z,25.60
2018-07-14T17:18:49.395Z,25.60
2018-07-14T17:21:16.267Z,25.50
2018-07-14T17:23:43.171Z,25.50
2018-07-14T17:26:10.083Z,25.50
2018-07-14T17:28:36.997Z,25.30
2018-07-14T17:31:03.932Z,25.30
2018-07-14T17:33:31.012Z,25.10
2018-07-14T17:35:57.889Z,25.10
2018-07-14T17:38:24.879Z,25.10
2018-07-14T17:40:51.760Z,25.00
2018-07-14T17:43:18.631Z,25.00
2018-07-14T17:45:45.548Z,24.80
2018-07-14T17:48:12.424Z,24.70
2018-07-14T17:50:39.347Z,24.70
2018-07-14T17:53:06.219Z,24.70
2018-07-14T17:55:33.419Z,24.70
2018-07-14T17:58:00.295Z,24.60
2018-07-14T18:00:27.240Z,24.50
2018-07-14T18:05:21.130Z,24.40
2018-07-14T18:07:48.091Z,24.30
2018-07-14T18:10:14.975Z,24.30
2018-07-14T18:12:41.936Z,24.20
2018-07-14T18:15:08.807Z,24.10
2018-07-14T18:17:35.727Z,23.90
2018-07-14T18:20:02.704Z,23.80
2018-07-14T18:22:29.571Z,23.70
2018-07-14T18:24:56.500Z,23.60
2018-07-14T18:27:23.372Z,23.50
2018-07-14T18:29:50.294Z,23.40
2018-07-14T18:32:17.212Z,23.40
2018-07-14T18:34:44.079Z,23.30
2018-07-14T18:37:10.987Z,23.20
2018-07-14T18:39:37.866Z,23.10
2018-07-14T18:42:04.989Z,23.10
2018-07-14T18:44:31.863Z,23.00
2018-07-14T18:46:59.103Z,22.80
2018-07-14T18:49:25.980Z,22.80
2018-07-14T18:51:52.897Z,22.70
2018-07-14T18:54:19.768Z,22.60
2018-07-14T18:56:46.691Z,22.50
2018-07-14T18:59:13.572Z,22.40
2018-07-14T19:01:40.491Z,22.30
2018-07-14T19:04:07.363Z,22.30
2018-07-14T19:06:34.324Z,22.20
2018-07-14T19:09:01.614Z,22.10
2018-07-14T19:11:28.544Z,22.00
2018-07-14T19:13:55.413Z,21.90
2018-07-14T19:16:22.287Z,21.80
2018-07-14T19:18:49.197Z,21.70
2018-07-14T19:21:16.072Z,21.70
2018-07-14T19:23:42.992Z,21.70
2018-07-14T19:26:09.963Z,21.60
2018-07-14T19:28:36.864Z,21.60
2018-07-14T19:31:03.780Z,21.50
2018-07-14T19:33:30.692Z,21.50
2018-07-14T19:35:57.608Z,21.50
2018-07-14T19:38:24.481Z,21.50
2018-07-14T19:40:51.388Z,21.50
2018-07-14T19:43:18.619Z,21.50
2018-07-14T19:45:45.493Z,21.50
2018-07-14T19:48:12.439Z,21.50
2018-07-14T19:50:39.313Z,21.40
2018-07-14T19:53:06.248Z,21.40
2018-07-14T19:55:35.666Z,21.30
2018-07-14T19:58:00.352Z,21.20
2018-07-14T20:00:27.276Z,21.10
2018-07-14T20:05:21.013Z,20.90
2018-07-14T20:07:48.187Z,20.90
2018-07-14T20:10:15.101Z,20.90
2018-07-14T20:12:42.011Z,20.80
2018-07-14T20:15:08.928Z,20.70
2018-07-14T20:17:35.851Z,20.70
2018-07-14T20:20:02.711Z,20.70
2018-07-14T20:22:29.672Z,20.60
2018-07-14T20:24:56.595Z,20.60
2018-07-14T20:27:23.683Z,20.50
2018-07-14T20:29:50.564Z,20.40
2018-07-14T20:32:17.480Z,20.30
2018-07-14T20:34:44.513Z,20.20
2018-07-14T20:37:11.403Z,20.10
2018-07-14T20:39:38.272Z,20.00
2018-07-14T20:42:05.184Z,19.90
2018-07-14T20:44:32.046Z,19.80
2018-07-14T20:46:58.959Z,19.80
2018-07-14T20:49:25.837Z,19.80
2018-07-14T20:51:52.855Z,19.80
2018-07-14T20:54:19.726Z,19.70
2018-07-14T20:56:46.767Z,19.60
2018-07-14T20:59:13.695Z,19.60
2018-07-14T21:01:40.603Z,19.50
2018-07-14T21:04:07.478Z,19.50
2018-07-14T21:06:34.393Z,19.50
2018-07-14T21:11:28.391Z,19.50
2018-07-14T21:13:55.307Z,19.50
2018-07-14T21:16:22.220Z,19.50
2018-07-14T21:18:49.127Z,19.50
2018-07-14T21:21:16.111Z,19.50
2018-07-14T21:23:42.967Z,19.40
2018-07-14T21:26:09.835Z,19.40
2018-07-14T21:28:36.751Z,19.30
2018-07-14T21:31:03.687Z,19.20
2018-07-14T21:33:30.568Z,19.20
2018-07-14T21:35:57.443Z,19.10
2018-07-14T21:38:24.375Z,19.10
2018-07-14T21:40:51.244Z,19.10
2018-07-14T21:43:18.123Z,19.10
2018-07-14T21:45:45.040Z,19.10
2018-07-14T21:48:11.915Z,19.00
2018-07-14T21:50:38.833Z,19.10
2018-07-14T21:53:05.708Z,19.00
2018-07-14T21:55:32.624Z,19.10
2018-07-14T21:57:59.506Z,19.10
2018-07-14T22:00:32.303Z,19.10
2018-07-14T22:02:59.420Z,19.20
2018-07-14T22:05:26.372Z,19.20
2018-07-14T22:07:53.260Z,19.10
2018-07-14T22:10:20.588Z,19.10
2018-07-14T22:12:47.552Z,19.10
2018-07-14T22:15:14.497Z,19.10
2018-07-14T22:17:41.456Z,19.10
2018-07-14T22:20:08.372Z,19.10
2018-07-14T22:22:35.283Z,19.00
2018-07-14T22:25:02.159Z,18.90
2018-07-14T22:27:29.076Z,18.90
2018-07-14T22:29:55.935Z,18.80
2018-07-14T22:32:22.853Z,18.80
2018-07-14T22:34:50.030Z,18.70
2018-07-14T22:37:16.938Z,18.60
2018-07-14T22:39:43.808Z,18.50
2018-07-14T22:42:10.721Z,18.40
2018-07-14T22:44:37.595Z,18.30
2018-07-14T22:47:04.913Z,18.20
2018-07-14T22:49:31.875Z,18.10
2018-07-14T22:51:58.743Z,18.10
2018-07-14T22:54:25.663Z,18.10
2018-07-14T22:56:52.531Z,18.10
2018-07-14T22:59:19.447Z,18.10
2018-07-14T23:01:46.315Z,18.10
2018-07-14T23:04:13.223Z,18.00
2018-07-14T23:06:40.136Z,17.90
2018-07-14T23:09:07.087Z,17.80
2018-07-14T23:11:33.961Z,17.70
2018-07-14T23:14:00.871Z,17.60
2018-07-14T23:16:27.778Z,17.50
2018-07-14T23:18:54.644Z,17.40
2018-07-14T23:21:21.559Z,17.40
2018-07-14T23:23:48.477Z,17.30
2018-07-14T23:26:15.389Z,17.20
2018-07-14T23:28:42.275Z,17.20
2018-07-14T23:33:36.090Z,17.10
2018-07-14T23:36:03.016Z,17.00
2018-07-14T23:38:29.932Z,17.00
2018-07-14T23:40:56.803Z,16.90
2018-07-14T23:45:50.587Z,16.80
2018-07-14T23:48:17.501Z,16.70
2018-07-14T23:50:44.520Z,16.70
2018-07-14T23:53:11.427Z,16.70
2018-07-14T23:55:38.571Z,16.70
2018-07-14T23:58:05.456Z,16.80
